Time;durP1;ratioP1;P1;durP2;ratioP2;P2;SDS_P1;SDS_P2;PMS_P1;PMS_P2;Temp;Humidity;BMP_temperature;BMP_pressure;BME280_temperature;BME280_humidity;BME280_pressure;Samples;Min_cycle;Max_cycle;Signal;HPM_P1;HPM_P2
2022/07/19 00:02:07;;;;;;;;;;;;;;;10.33;100.00;100005.21;1733793;83;20095;-70
2022/07/19 00:04:34;;;;;;;;;;;;;;;10.31;100.00;100002.77;1733965;83;20070;-70
2022/07/19 00:07:01;;;;;;;;;;;;;;;10.31;100.00;100001.95;1733889;83;20438;-70
2022/07/19 00:09:28;;;;;;;;;;;;;;;10.30;100.00;100007.19;1733895;83;20118;-70
2022/07/19 00:11:56;;;;;;;;;;;;;;;10.28;100.00;100008.05;1733967;83;21828;-70
2022/07/19 00:14:24;;;;;;;;;;;;;;;10.25;100.00;100012.21;1733819;83;20083;-70
2022/07/19 00:16:50;;;;;;;;;;;;;;;10.23;100.00;100004.84;1733929;83;20171;-70
2022/07/19 00:19:17;;;;;;;;;;;;;;;10.22;100.00;99999.91;1733839;83;20107;-70
2022/07/19 00:21:43;;;;;;;;;;;;;;;10.21;100.00;100003.77;1733947;83;20461;-70
2022/07/19 00:24:10;;;;;;;;;;;;;;;10.20;100.00;100004.89;1733905;83;21111;-70
2022/07/19 00:26:36;;;;;;;;;;;;;;;10.19;100.00;100001.04;1733791;83;20127;-70
2022/07/19 00:29:02;;;;;;;;;;;;;;;10.18;100.00;100004.90;1733870;83;20083;-70
2022/07/19 00:31:30;;;;;;;;;;;;;;;10.17;100.00;99999.16;1733980;83;20130;-70
2022/07/19 00:33:56;;;;;;;;;;;;;;;10.14;100.00;100004.69;1734136;83;20426;-70
2022/07/19 00:36:23;;;;;;;;;;;;;;;10.10;100.00;100003.66;1733838;83;21143;-70
2022/07/19 00:38:49;;;;;;;;;;;;;;;10.08;100.00;99999.03;1733769;83;20087;-70
2022/07/19 00:41:15;;;;;;;;;;;;;;;10.07;100.00;99993.84;1734063;83;20083;-70
2022/07/19 00:43:42;;;;;;;;;;;;;;;10.05;100.00;99990.59;1733872;83;20074;-70
2022/07/19 00:46:17;;;;;;;;;;;;;;;10.02;100.00;99991.20;1734083;83;20552;-70
2022/07/19 00:48:43;;;;;;;;;;;;;;;10.00;100.00;99989.31;1733901;83;21142;-70
2022/07/19 00:51:10;;;;;;;;;;;;;;;9.98;100.00;99992.91;1733773;83;20465;-70
2022/07/19 00:53:39;;;;;;;;;;;;;;;9.96;100.00;99986.35;1733825;83;20186;-70
2022/07/19 00:56:06;;;;;;;;;;;;;;;9.93;100.00;99991.07;1733944;83;20071;-67
2022/07/19 00:58:34;;;;;;;;;;;;;;;9.90;100.00;99981.52;1733842;83;20083;-68
2022/07/19 01:01:03;;;;;;;;;;;;;;;9.88;100.00;99979.63;1733838;83;21792;-68
2022/07/19 01:03:29;;;;;;;;;;;;;;;9.86;100.00;99979.12;1733955;83;20119;-68
2022/07/19 01:05:56;;;;;;;;;;;;;;;9.85;100.00;99979.41;1734107;83;20437;-68
2022/07/19 01:08:22;;;;;;;;;;;;;;;9.83;100.00;99975.60;1733913;83;20120;-68
2022/07/19 01:10:49;;;;;;;;;;;;;;;9.80;100.00;99970.75;1734046;83;20492;-68
2022/07/19 01:13:15;;;;;;;;;;;;;;;9.80;100.00;99974.86;1733912;83;21164;-68
2022/07/19 01:15:43;;;;;;;;;;;;;;;9.78;100.00;99971.61;1733764;83;20099;-68
2022/07/19 01:18:11;;;;;;;;;;;;;;;9.76;100.00;99974.39;1733806;83;20082;-68
2022/07/19 01:20:37;;;;;;;;;;;;;;;9.73;100.00;99968.13;1733894;83;20098;-68
2022/07/19 01:23:04;;;;;;;;;;;;;;;9.72;100.00;99971.98;1733835;83;20146;-68
2022/07/19 01:25:33;;;;;;;;;;;;;;;9.69;100.00;99969.28;1733853;83;21139;-68
2022/07/19 01:28:00;;;;;;;;;;;;;;;9.68;100.00;99976.44;1733855;83;20114;-69
2022/07/19 01:30:29;;;;;;;;;;;;;;;9.67;100.00;99973.44;1734010;83;32496;-69
2022/07/19 01:32:56;;;;;;;;;;;;;;;9.63;100.00;99969.11;1733901;83;20115;-68
2022/07/19 01:35:22;;;;;;;;;;;;;;;9.59;100.00;99970.27;1734034;83;20422;-68
2022/07/19 01:37:48;;;;;;;;;;;;;;;9.58;100.00;99972.75;1733890;83;21218;-68
2022/07/19 01:40:16;;;;;;;;;;;;;;;9.58;100.00;99972.75;1733675;83;20434;-68
2022/07/19 01:42:44;;;;;;;;;;;;;;;9.58;100.00;99972.75;1733800;83;20150;-69
2022/07/19 01:45:11;;;;;;;;;;;;;;;9.57;100.00;99967.01;1734053;83;20102;-69
2022/07/19 01:47:40;;;;;;;;;;;;;;;9.56;100.00;99971.42;1735569;82;20442;-69
2022/07/19 01:50:08;;;;;;;;;;;;;;;9.55;100.00;99971.16;1742833;82;21269;-69
2022/07/19 01:52:35;;;;;;;;;;;;;;;9.54;100.00;99967.61;1742664;82;20083;-69
2022/07/19 01:55:01;;;;;;;;;;;;;;;9.54;100.00;99961.31;1742674;82;20115;-69
2022/07/19 01:57:28;;;;;;;;;;;;;;;9.54;100.00;99961.31;1742817;82;20430;-69
2022/07/19 01:59:55;;;;;;;;;;;;;;;9.54;100.00;99963.49;1719789;82;20099;-69
2022/07/19 02:02:21;;;;;;;;;;;;;;;9.53;100.00;99963.23;1742725;82;21150;-69
2022/07/19 02:04:47;;;;;;;;;;;;;;;9.53;100.00;99969.27;1742749;82;20095;-69
2022/07/19 02:07:14;;;;;;;;;;;;;;;9.55;100.00;99971.98;1742628;82;20114;-69
2022/07/19 02:09:41;;;;;;;;;;;;;;;9.58;100.00;99967.83;1742794;82;20139;-69
2022/07/19 02:12:07;;;;;;;;;;;;;;;9.62;100.00;99974.34;1742830;82;20095;-69
2022/07/19 02:14:35;;;;;;;;;;;;;;;9.66;100.00;99964.96;1742778;82;21063;-69
2022/07/19 02:17:01;;;;;;;;;;;;;;;9.72;100.00;99969.25;1742733;82;20071;-69
2022/07/19 02:19:28;;;;;;;;;;;;;;;9.78;100.00;99965.31;1742801;82;20119;-69
2022/07/19 02:21:54;;;;;;;;;;;;;;;9.87;100.00;99967.59;1742748;82;20430;-69
2022/07/19 02:24:20;;;;;;;;;;;;;;;9.98;100.00;99966.86;1742803;82;20124;-69
2022/07/19 02:26:47;;;;;;;;;;;;;;;10.08;100.00;99968.05;1742673;82;21326;-69
2022/07/19 02:29:13;;;;;;;;;;;;;;;10.17;100.00;99962.12;1742719;82;20095;-69
2022/07/19 02:31:40;;;;;;;;;;;;;;;10.25;100.00;99959.52;1742800;82;20095;-69
2022/07/19 02:34:06;;;;;;;;;;;;;;;10.37;100.00;99960.40;1742978;82;20434;-69
2022/07/19 02:36:32;;;;;;;;;;;;;;;10.47;100.00;99963.47;1742871;82;20071;-69
2022/07/19 02:38:59;;;;;;;;;;;;;;;10.55;100.00;99955.34;1742755;82;21153;-69
2022/07/19 02:41:25;;;;;;;;;;;;;;;10.67;100.00;99959.50;1742626;82;20099;-69
2022/07/19 02:43:52;;;;;;;;;;;;;;;10.75;100.00;99960.97;1742888;82;20151;-70
2022/07/19 02:46:18;;;;;;;;;;;;;;;10.84;100.00;99955.02;1742704;82;20103;-69
2022/07/19 02:48:45;;;;;;;;;;;;;;;10.94;100.00;99960.04;1737839;82;20143;-71
2022/07/19 02:51:12;;;;;;;;;;;;;;;11.01;100.00;99961.22;1733826;83;21160;-69
2022/07/19 02:53:38;;;;;;;;;;;;;;;11.10;100.00;99952.50;1733809;83;20439;-70
2022/07/19 02:56:05;;;;;;;;;;;;;;;11.18;100.00;99949.58;1733814;83;20106;-70
2022/07/19 02:58:32;;;;;;;;;;;;;;;11.24;100.00;99951.90;1733974;83;20434;-70
2022/07/19 03:00:59;;;;;;;;;;;;;;;11.32;100.00;99955.84;1733868;83;20074;-70
2022/07/19 03:03:44;;;;;;;;;;;;;;;11.39;100.00;99950.73;1733915;83;21326;-70
2022/07/19 03:06:11;;;;;;;;;;;;;;;11.47;100.00;99953.30;1733979;83;20418;-70
2022/07/19 03:08:38;;;;;;;;;;;;;;;11.57;100.00;99951.65;1733855;83;20118;-70
2022/07/19 03:11:04;;;;;;;;;;;;;;;11.68;100.00;99951.65;1733902;83;20407;-70
2022/07/19 03:13:31;;;;;;;;;;;;;;;11.77;100.00;99949.80;1733877;83;20083;-70
2022/07/19 03:15:57;;;;;;;;;;;;;;;11.88;100.00;99954.48;1733726;83;21228;-70
2022/07/19 03:18:24;;;;;;;;;;;;;;;11.97;100.00;99953.16;1733859;83;20095;-70
2022/07/19 03:20:50;;;;;;;;;;;;;;;12.06;100.00;99954.84;1734016;83;20083;-70
2022/07/19 03:23:16;;;;;;;;;;;;;;;12.13;100.00;99954.39;1734008;83;20504;-70
2022/07/19 03:25:43;;;;;;;;;;;;;;;12.16;100.00;99953.73;1733902;83;20107;-70
2022/07/19 03:28:10;;;;;;;;;;;;;;;12.22;100.00;99951.89;1734073;83;21868;-70
2022/07/19 03:30:37;;;;;;;;;;;;;;;12.27;100.00;99949.57;1733913;83;20070;-70
2022/07/19 03:33:04;;;;;;;;;;;;;;;12.35;100.00;99949.36;1734077;83;20430;-70
2022/07/19 03:35:30;;;;;;;;;;;;;;;12.43;100.00;99949.40;1733992;83;20405;-70
2022/07/19 03:37:56;;;;;;;;;;;;;;;12.52;100.00;99947.48;1734013;83;20114;-69
2022/07/19 03:40:23;;;;;;;;;;;;;;;12.60;100.00;99947.27;1733935;83;21784;-69
2022/07/19 03:42:50;;;;;;;;;;;;;;;12.69;100.00;99948.67;1733842;83;20122;-70
2022/07/19 03:45:17;;;;;;;;;;;;;;;12.78;100.00;99951.67;1733953;81;20090;-70
2022/07/19 03:47:43;;;;;;;;;;;;;;;12.88;100.00;99951.38;1734096;83;20106;-70
2022/07/19 03:50:10;;;;;;;;;;;;;;;12.97;100.00;99947.26;1726184;82;20142;-70
2022/07/19 03:52:36;;;;;;;;;;;;;;;13.07;100.00;99946.95;1726085;83;21121;-70
2022/07/19 03:55:04;;;;;;;;;;;;;;;13.17;100.00;99956.31;1726019;83;20119;-68
2022/07/19 03:57:30;;;;;;;;;;;;;;;13.29;100.00;99947.95;1726158;83;20430;-68
2022/07/19 03:59:57;;;;;;;;;;;;;;;13.40;100.00;99947.87;1726128;83;20135;-68
2022/07/19 04:02:23;;;;;;;;;;;;;;;13.48;100.00;99951.19;1726408;83;20421;-68
2022/07/19 04:04:50;;;;;;;;;;;;;;;13.57;100.00;99953.38;1726165;83;21138;-68
2022/07/19 04:07:17;;;;;;;;;;;;;;;13.63;100.00;99954.84;1725834;83;20118;-68
2022/07/19 04:09:43;;;;;;;;;;;;;;;13.70;100.00;99965.38;1725996;83;20114;-68
2022/07/19 04:12:10;;;;;;;;;;;;;;;13.75;100.00;99954.17;1725975;82;20079;-68
2022/07/19 04:14:38;;;;;;;;;;;;;;;13.81;100.00;99953.68;1726125;83;20107;-68
2022/07/19 04:17:04;;;;;;;;;;;;;;;13.88;100.00;99960.05;1726189;82;21255;-68
2022/07/19 04:19:31;;;;;;;;;;;;;;;13.92;100.00;99957.45;1726113;83;20119;-68
2022/07/19 04:21:58;;;;;;;;;;;;;;;13.96;100.00;99952.33;1726131;83;20147;-68
2022/07/19 04:24:24;;;;;;;;;;;;;;;14.02;100.00;99944.68;1726061;82;20095;-67
2022/07/19 04:26:50;;;;;;;;;;;;;;;14.07;100.00;99950.02;1725978;83;20095;-68
2022/07/19 04:29:17;;;;;;;;;;;;;;;14.13;100.00;99951.47;1726128;83;21319;-68
2022/07/19 04:31:44;;;;;;;;;;;;;;;14.23;100.00;99952.50;1725978;83;20083;-68
2022/07/19 04:34:10;;;;;;;;;;;;;;;14.31;100.00;99948.89;1726134;82;20116;-71
2022/07/19 04:36:38;;;;;;;;;;;;;;;14.43;100.00;99956.52;1726363;83;20083;-70
2022/07/19 04:39:05;;;;;;;;;;;;;;;14.54;100.00;99949.45;1726180;83;20111;-70
2022/07/19 04:41:32;;;;;;;;;;;;;;;14.69;100.00;99950.27;1726052;83;21159;-70
2022/07/19 04:43:59;;;;;;;;;;;;;;;14.86;98.98;99952.94;1725964;83;20146;-69
2022/07/19 04:46:25;;;;;;;;;;;;;;;15.03;98.26;99950.62;1726112;82;20095;-70
2022/07/19 04:48:53;;;;;;;;;;;;;;;15.19;97.31;99963.28;1717662;82;20089;-68
2022/07/19 04:51:20;;;;;;;;;;;;;;;15.34;94.75;99965.45;1710292;83;20121;-72
2022/07/19 04:53:47;;;;;;;;;;;;;;;15.46;93.27;99969.66;1697586;84;21148;-76
2022/07/19 04:56:13;;;;;;;;;;;;;;;15.59;92.38;99972.52;1698799;84;20090;-79
2022/07/19 04:58:41;;;;;;;;;;;;;;;15.72;91.98;99975.55;1698672;84;20121;-77
2022/07/19 05:01:07;;;;;;;;;;;;;;;15.88;91.08;99967.43;1698880;83;20188;-75
2022/07/19 05:03:34;;;;;;;;;;;;;;;16.04;90.60;99965.64;1698971;84;20121;-78
2022/07/19 05:06:00;;;;;;;;;;;;;;;16.25;89.04;99966.94;1697663;84;21125;-79
2022/07/19 05:08:27;;;;;;;;;;;;;;;16.45;85.84;99961.89;1698129;83;20121;-80
2022/07/19 05:10:54;;;;;;;;;;;;;;;16.59;85.33;99963.75;1698777;84;20119;-87
2022/07/19 05:13:20;;;;;;;;;;;;;;;16.72;84.27;99962.63;1698928;84;20149;-81
2022/07/19 05:15:47;;;;;;;;;;;;;;;16.83;83.35;99960.17;1698975;84;20117;-74
2022/07/19 05:18:13;;;;;;;;;;;;;;;16.93;82.86;99963.87;1698853;84;21102;-74
2022/07/19 05:20:40;;;;;;;;;;;;;;;17.03;80.89;99960.63;1698791;84;20082;-74
2022/07/19 05:23:07;;;;;;;;;;;;;;;17.11;79.76;99955.53;1699067;84;20121;-76
2022/07/19 05:25:35;;;;;;;;;;;;;;;17.23;79.42;99960.83;1698786;84;20117;-81
2022/07/19 05:28:01;;;;;;;;;;;;;;;17.34;80.11;99954.41;1698734;84;20085;-73
2022/07/19 05:30:28;;;;;;;;;;;;;;;17.44;79.73;99955.31;1698801;84;21793;-75
2022/07/19 05:32:55;;;;;;;;;;;;;;;17.55;80.44;99950.08;1711999;83;20111;-74
2022/07/19 05:35:22;;;;;;;;;;;;;;;17.65;79.87;99953.77;1728092;83;20426;-75
2022/07/19 05:37:48;;;;;;;;;;;;;;;17.69;77.57;99958.03;1719202;83;20083;-70
2022/07/19 05:40:14;;;;;;;;;;;;;;;17.67;77.58;99959.78;1700053;83;20104;-73
2022/07/19 05:42:41;;;;;;;;;;;;;;;17.69;77.80;99958.84;1695802;84;21519;-73
2022/07/19 05:45:10;;;;;;;;;;;;;;;17.77;77.43;99957.89;1695567;84;20160;-71
2022/07/19 05:47:38;;;;;;;;;;;;;;;17.86;77.71;99963.28;1695746;84;20121;-72
2022/07/19 05:50:05;;;;;;;;;;;;;;;17.99;76.07;99959.84;1692186;83;20726;-72
2022/07/19 05:52:32;;;;;;;;;;;;;;;18.07;74.19;99962.45;1690787;85;20464;-70
2022/07/19 05:54:59;;;;;;;;;;;;;;;18.15;74.48;99955.92;1675235;83;21771;-71
2022/07/19 05:57:25;;;;;;;;;;;;;;;18.24;73.28;99957.16;1709941;83;20083;-71
2022/07/19 05:59:53;;;;;;;;;;;;;;;18.28;71.86;99958.05;1725502;83;20123;-77
2022/07/19 06:02:20;;;;;;;;;;;;;;;18.30;72.24;99959.89;1715384;83;20428;-71
2022/07/19 06:04:46;;;;;;;;;;;;;;;18.39;74.27;99962.50;1696807;83;20097;-79
2022/07/19 06:07:13;;;;;;;;;;;;;;;18.57;71.76;99958.75;1691025;85;21776;-70
2022/07/19 06:09:39;;;;;;;;;;;;;;;18.63;71.85;99958.73;1690447;85;20136;-70
2022/07/19 06:12:05;;;;;;;;;;;;;;;18.71;73.60;99952.99;1690818;85;20106;-70
2022/07/19 06:14:32;;;;;;;;;;;;;;;18.91;73.04;99958.04;1690675;85;20101;-71
2022/07/19 06:16:59;;;;;;;;;;;;;;;19.16;72.38;99964.73;1695386;83;20113;-70
2022/07/19 06:19:26;;;;;;;;;;;;;;;19.35;70.58;99960.02;1707187;83;21546;-70
2022/07/19 06:21:53;;;;;;;;;;;;;;;19.42;70.14;99963.55;1690524;84;20073;-70
2022/07/19 06:24:19;;;;;;;;;;;;;;;19.43;70.22;99965.96;1690711;85;20496;-72
2022/07/19 06:26:46;;;;;;;;;;;;;;;19.43;69.45;99972.92;1690546;85;20094;-71
2022/07/19 06:29:12;;;;;;;;;;;;;;;19.32;69.65;99969.09;1693830;83;20186;-72
2022/07/19 06:31:39;;;;;;;;;;;;;;;19.20;70.28;99973.98;1710672;82;21131;-71
2022/07/19 06:34:05;;;;;;;;;;;;;;;19.15;71.20;99973.67;1696267;84;20383;-71
2022/07/19 06:36:32;;;;;;;;;;;;;;;19.19;71.89;99973.75;1696441;84;20122;-71
2022/07/19 06:38:58;;;;;;;;;;;;;;;19.27;72.24;99969.97;1696436;84;20413;-74
2022/07/19 06:41:25;;;;;;;;;;;;;;;19.38;73.21;99973.79;1696382;84;20122;-71
2022/07/19 06:43:51;;;;;;;;;;;;;;;19.46;71.67;99975.56;1696419;84;21159;-71
2022/07/19 06:46:19;;;;;;;;;;;;;;;19.50;71.75;99971.46;1696388;84;20129;-71
2022/07/19 06:48:47;;;;;;;;;;;;;;;19.56;71.42;99968.05;1699545;83;20110;-71
2022/07/19 06:51:13;;;;;;;;;;;;;;;19.60;71.44;99964.76;1730768;82;20098;-72
2022/07/19 06:53:40;;;;;;;;;;;;;;;19.53;71.14;99959.04;1741392;82;20138;-71
2022/07/19 06:56:07;;;;;;;;;;;;;;;19.48;72.00;99959.88;1741122;82;21154;-72
2022/07/19 06:58:34;;;;;;;;;;;;;;;19.47;73.29;99966.04;1733907;82;20135;-72
2022/07/19 07:01:00;;;;;;;;;;;;;;;19.52;73.46;99967.76;1711731;84;20148;-71
2022/07/19 07:03:26;;;;;;;;;;;;;;;19.61;72.30;99976.13;1711532;84;20097;-72
2022/07/19 07:05:54;;;;;;;;;;;;;;;19.66;71.36;99975.80;1711743;84;20096;-72
2022/07/19 07:08:20;;;;;;;;;;;;;;;19.66;71.49;99973.02;1711558;82;21156;-72
2022/07/19 07:10:48;;;;;;;;;;;;;;;19.72;70.90;99974.34;1711719;84;20136;-73
2022/07/19 07:13:15;;;;;;;;;;;;;;;19.82;70.86;99972.13;1711654;84;20096;-70
2022/07/19 07:15:43;;;;;;;;;;;;;;;19.98;68.80;99974.25;1711620;84;20140;-70
2022/07/19 07:18:09;;;;;;;;;;;;;;;20.07;69.69;99962.28;1711599;84;20475;-70
2022/07/19 07:20:36;;;;;;;;;;;;;;;20.10;68.87;99969.32;1724825;82;21153;-70
2022/07/19 07:23:03;;;;;;;;;;;;;;;20.21;69.83;99968.13;1715099;82;20435;-71
2022/07/19 07:25:30;;;;;;;;;;;;;;;20.36;69.51;99968.58;1711043;84;20160;-71
2022/07/19 07:28:00;;;;;;;;;;;;;;;20.47;68.52;99966.59;1710925;84;20100;-70
2022/07/19 07:30:26;;;;;;;;;;;;;;;20.58;68.22;99966.20;1710897;84;20113;-71
2022/07/19 07:32:52;;;;;;;;;;;;;;;20.65;66.66;99964.33;1711083;84;21153;-71
2022/07/19 07:35:21;;;;;;;;;;;;;;;20.69;67.41;99962.41;1710934;84;20092;-70
2022/07/19 07:37:47;;;;;;;;;;;;;;;20.72;66.64;99967.83;1711052;84;20085;-72
2022/07/19 07:40:13;;;;;;;;;;;;;;;20.64;66.11;99974.47;1711117;84;20124;-72
2022/07/19 07:42:40;;;;;;;;;;;;;;;20.62;67.58;99975.42;1711190;84;20470;-72
2022/07/19 07:45:09;;;;;;;;;;;;;;;20.74;68.43;99978.02;1711022;84;21161;-71
2022/07/19 07:47:36;;;;;;;;;;;;;;;20.86;67.29;99969.42;1710889;84;20096;-71
2022/07/19 07:50:05;;;;;;;;;;;;;;;20.91;64.92;99972.48;1702725;83;20130;-71
2022/07/19 07:52:32;;;;;;;;;;;;;;;20.87;65.41;99974.41;1690874;84;20086;-70
2022/07/19 07:54:59;;;;;;;;;;;;;;;20.83;65.38;99979.94;1690647;84;20081;-71
2022/07/19 07:57:25;;;;;;;;;;;;;;;20.87;66.27;99975.22;1695703;83;21043;-71
2022/07/19 07:59:52;;;;;;;;;;;;;;;20.96;66.19;99976.36;1705871;83;20086;-71
2022/07/19 08:02:18;;;;;;;;;;;;;;;21.10;65.87;99975.98;1690960;84;20424;-71
2022/07/19 08:04:45;;;;;;;;;;;;;;;21.22;64.09;99970.00;1690742;85;20173;-71
2022/07/19 08:07:13;;;;;;;;;;;;;;;21.23;65.40;99973.01;1690512;85;20101;-70
2022/07/19 08:09:39;;;;;;;;;;;;;;;21.33;65.59;99974.55;1690814;84;21100;-71
2022/07/19 08:12:06;;;;;;;;;;;;;;;21.40;64.65;99979.41;1690793;84;20085;-71
2022/07/19 08:14:33;;;;;;;;;;;;;;;21.44;65.55;99973.28;1690776;84;20107;-71
2022/07/19 08:16:59;;;;;;;;;;;;;;;21.50;64.91;99983.53;1691120;85;20546;-71
2022/07/19 08:19:26;;;;;;;;;;;;;;;21.52;64.30;99974.98;1690863;85;20085;-71
2022/07/19 08:21:53;;;;;;;;;;;;;;;21.44;64.80;99974.67;1690824;84;21267;-71
2022/07/19 08:24:19;;;;;;;;;;;;;;;21.42;65.75;99977.04;1690693;85;20157;-71
2022/07/19 08:26:46;;;;;;;;;;;;;;;21.41;65.10;99976.83;1692591;83;20082;-70
2022/07/19 08:29:12;;;;;;;;;;;;;;;21.32;64.77;99972.95;1709064;83;20185;-71
2022/07/19 08:31:38;;;;;;;;;;;;;;;21.21;65.42;99976.73;1690957;85;20110;-71
2022/07/19 08:34:05;;;;;;;;;;;;;;;21.04;65.30;99980.87;1690675;85;21036;-71
2022/07/19 08:36:31;;;;;;;;;;;;;;;20.88;66.56;99971.84;1690838;84;20113;-70
2022/07/19 08:38:58;;;;;;;;;;;;;;;20.74;66.89;99972.45;1708226;83;20099;-71
2022/07/19 08:41:24;;;;;;;;;;;;;;;20.58;67.50;99976.77;1695348;83;20407;-70
2022/07/19 08:43:51;;;;;;;;;;;;;;;20.50;68.35;99975.62;1690850;83;20098;-71
2022/07/19 08:46:22;;;;;;;;;;;;;;;20.39;68.58;99974.84;1665681;85;21110;-71
2022/07/19 08:48:49;;;;;;;;;;;;;;;20.30;68.85;99975.63;1690738;84;20142;-70
2022/07/19 08:51:20;;;;;;;;;;;;;;;20.30;69.83;99971.45;1691624;83;20085;-70
2022/07/19 08:53:46;;;;;;;;;;;;;;;20.35;69.77;99975.33;1705416;83;20139;-70
2022/07/19 08:58:59;;;;;;;;;;;;;;;20.48;69.70;99974.59;1725670;83;21276;-71
2022/07/19 09:01:25;;;;;;;;;;;;;;;20.50;68.37;99976.42;1725435;83;20099;-70
2022/07/19 09:04:10;;;;;;;;;;;;;;;20.50;68.73;99973.63;1725664;83;20447;-71
2022/07/19 09:06:44;;;;;;;;;;;;;;;20.58;69.88;99970.37;1725542;83;20175;-71
2022/07/19 09:09:15;;;;;;;;;;;;;;;20.71;69.73;99966.22;1725639;83;20083;-70
2022/07/19 09:11:50;;;;;;;;;;;;;;;20.83;69.97;99966.58;1725633;83;21210;-71
2022/07/19 09:14:19;;;;;;;;;;;;;;;21.00;69.92;99966.05;1725436;83;20426;-71
2022/07/19 09:16:55;;;;;;;;;;;;;;;21.25;68.77;99962.27;1724830;82;20087;-70
2022/07/19 09:19:23;;;;;;;;;;;;;;;21.40;67.34;99960.66;1725782;83;20439;-71
2022/07/19 09:22:04;;;;;;;;;;;;;;;21.50;66.93;99957.00;1725500;83;20158;-71
2022/07/19 09:24:33;;;;;;;;;;;;;;;21.58;67.67;99955.31;1724837;82;21364;-71
2022/07/19 09:27:10;;;;;;;;;;;;;;;21.70;67.25;99949.48;1725370;83;20095;-71
2022/07/19 09:29:38;;;;;;;;;;;;;;;21.75;67.42;99950.53;1725799;83;20127;-71
2022/07/19 09:32:10;;;;;;;;;;;;;;;21.72;66.98;99952.70;1725612;83;20450;-74
2022/07/19 09:34:43;;;;;;;;;;;;;;;21.71;66.90;99953.08;1725638;83;20088;-71
2022/07/19 09:37:15;;;;;;;;;;;;;;;21.78;66.55;99950.96;1694537;83;21279;-71
2022/07/19 09:39:45;;;;;;;;;;;;;;;21.82;67.39;99949.02;1701741;83;20435;-70
2022/07/19 09:42:13;;;;;;;;;;;;;;;21.91;66.23;99950.92;1690546;84;20145;-71
2022/07/19 09:44:39;;;;;;;;;;;;;;;21.95;65.16;99941.98;1700798;83;20107;-71
2022/07/19 09:47:05;;;;;;;;;;;;;;;21.99;65.67;99946.39;1725380;83;20128;-71
2022/07/19 09:49:32;;;;;;;;;;;;;;;22.04;66.62;99941.08;1725259;83;21257;-71
2022/07/19 09:52:01;;;;;;;;;;;;;;;22.04;67.09;99940.48;1727770;83;20143;-71
2022/07/19 09:54:28;;;;;;;;;;;;;;;21.97;66.53;99943.17;1715344;83;20468;-70
2022/07/19 09:56:56;;;;;;;;;;;;;;;21.87;67.46;99938.30;1715171;83;20097;-71
2022/07/19 09:59:23;;;;;;;;;;;;;;;21.73;67.62;99936.14;1708630;83;20162;-70
2022/07/19 10:01:52;;;;;;;;;;;;;;;21.55;67.23;99941.30;1713605;83;21160;-70
2022/07/19 10:04:20;;;;;;;;;;;;;;;21.35;68.55;99949.05;1727903;83;20171;-70
2022/07/19 10:06:48;;;;;;;;;;;;;;;20.99;73.18;99961.06;1709949;83;20097;-70
2022/07/19 10:09:16;;;;;;;;;;;;;;;20.58;75.76;99952.25;1698977;84;20162;-70
2022/07/19 10:11:44;;;;;;;;;;;;;;;20.21;79.29;99951.41;1699049;84;20472;-71
2022/07/19 10:14:12;;;;;;;;;;;;;;;19.94;82.94;99946.91;1699153;84;21825;-70
2022/07/19 10:16:45;;;;;;;;;;;;;;;19.77;84.16;99947.58;1700265;83;20091;-70
2022/07/19 10:19:18;;;;;;;;;;;;;;;19.75;86.36;99947.73;1699593;83;20133;-70
2022/07/19 10:21:45;;;;;;;;;;;;;;;19.85;88.85;99950.50;1713409;83;20130;-71
2022/07/19 10:24:12;;;;;;;;;;;;;;;20.05;90.01;99941.75;1713608;82;20146;-70
2022/07/19 10:26:40;;;;;;;;;;;;;;;20.34;90.14;99940.26;1710977;83;21164;-70
2022/07/19 10:29:13;;;;;;;;;;;;;;;20.57;89.58;99939.48;1719616;82;20686;-70
2022/07/19 10:31:40;;;;;;;;;;;;;;;20.79;89.15;99934.47;1713158;82;20187;-70
2022/07/19 10:34:11;;;;;;;;;;;;;;;21.04;86.65;99934.22;1691512;83;20105;-71
2022/07/19 10:36:46;;;;;;;;;;;;;;;21.30;86.62;99934.02;1708999;83;20164;-71
2022/07/19 10:39:20;;;;;;;;;;;;;;;21.53;83.71;99929.70;1716834;82;21173;-71
2022/07/19 10:42:17;;;;;;;;;;;;;;;21.73;82.33;99927.77;1708887;83;20077;-71
2022/07/19 10:44:59;;;;;;;;;;;;;;;21.89;80.88;99922.55;1699066;84;20085;-71
2022/07/19 10:47:37;;;;;;;;;;;;;;;22.05;80.89;99918.93;1699130;84;20564;-71
2022/07/19 10:50:04;;;;;;;;;;;;;;;22.16;79.33;99921.83;1697757;84;20126;-71
2022/07/19 10:52:32;;;;;;;;;;;;;;;22.09;78.28;99918.38;1730537;82;21134;-70
2022/07/19 10:55:24;;;;;;;;;;;;;;;22.03;77.34;99915.12;1735835;82;20093;-72
2022/07/19 10:57:53;;;;;;;;;;;;;;;22.00;76.80;99917.84;1725299;83;20101;-71
2022/07/19 11:00:25;;;;;;;;;;;;;;;21.92;77.01;99912.00;1724892;83;20136;-70
2022/07/19 11:02:53;;;;;;;;;;;;;;;21.83;76.61;99915.69;1725055;83;20093;-70
2022/07/19 11:05:26;;;;;;;;;;;;;;;21.80;78.28;99915.06;1724872;83;21166;-71
2022/07/19 11:07:55;;;;;;;;;;;;;;;21.94;76.08;99908.23;1725225;83;20125;-71
2022/07/19 11:10:27;;;;;;;;;;;;;;;22.14;74.25;99899.05;1724878;83;20121;-71
2022/07/19 11:12:54;;;;;;;;;;;;;;;22.44;73.58;99896.92;1740467;82;20090;-71
2022/07/19 11:15:22;;;;;;;;;;;;;;;22.89;72.42;99897.66;1719417;83;20093;-72
2022/07/19 11:17:57;;;;;;;;;;;;;;;23.41;70.87;99897.72;1719251;83;21149;-72
2022/07/19 11:20:28;;;;;;;;;;;;;;;23.76;65.08;99892.84;1722617;82;20094;-71
2022/07/19 11:22:58;;;;;;;;;;;;;;;24.02;65.59;99900.13;1738617;82;20149;-72
2022/07/19 11:25:29;;;;;;;;;;;;;;;24.19;65.44;99890.94;1724767;83;20101;-71
2022/07/19 11:27:56;;;;;;;;;;;;;;;24.33;64.93;99896.56;1725037;83;20439;-71
2022/07/19 11:30:23;;;;;;;;;;;;;;;24.33;62.11;99890.95;1724815;82;22039;-70
2022/07/19 11:32:56;;;;;;;;;;;;;;;24.13;62.16;99888.92;1734384;82;20631;-70
2022/07/19 11:35:22;;;;;;;;;;;;;;;23.83;63.51;99901.28;1738192;81;20087;-71
2022/07/19 11:37:53;;;;;;;;;;;;;;;23.55;64.49;99904.02;1754698;81;20083;-71
2022/07/19 11:40:20;;;;;;;;;;;;;;;23.33;62.97;99897.48;1753162;82;20189;-71
2022/07/19 11:42:48;;;;;;;;;;;;;;;23.05;64.59;99905.97;1754549;81;21849;-71
2022/07/19 11:45:16;;;;;;;;;;;;;;;22.79;65.97;99899.79;1754813;82;20114;-71
2022/07/19 11:47:45;;;;;;;;;;;;;;;22.63;66.64;99900.05;1754741;82;20134;-71
2022/07/19 11:50:13;;;;;;;;;;;;;;;22.52;68.07;99901.39;1747448;81;20121;-70
2022/07/19 11:52:46;;;;;;;;;;;;;;;22.46;67.95;99900.14;1737945;82;20160;-71
2022/07/19 11:55:14;;;;;;;;;;;;;;;22.39;68.42;99896.69;1722544;83;21118;-71
2022/07/19 11:57:41;;;;;;;;;;;;;;;22.27;68.83;99896.17;1724319;83;20161;-76
2022/07/19 12:00:09;;;;;;;;;;;;;;;22.22;69.75;99892.33;1724662;83;20085;-78
2022/07/19 12:02:57;;;;;;;;;;;;;;;22.22;69.59;99892.33;1731003;82;20504;-82
2022/07/19 12:05:24;;;;;;;;;;;;;;;22.17;68.24;99886.50;1739648;81;20135;-78
2022/07/19 12:07:51;;;;;;;;;;;;;;;22.10;68.25;99883.63;1706946;83;21502;-75
2022/07/19 12:10:45;;;;;;;;;;;;;;;22.05;68.77;99889.58;1708480;82;20117;-78
2022/07/19 12:13:13;;;;;;;;;;;;;;;22.03;68.62;99885.77;1710640;82;20134;-78
2022/07/19 12:15:48;;;;;;;;;;;;;;;22.01;68.80;99892.34;1740107;82;20459;-75
2022/07/19 12:18:18;;;;;;;;;;;;;;;21.95;68.14;99887.47;1710657;84;20458;-77
2022/07/19 12:20:45;;;;;;;;;;;;;;;21.81;67.50;99882.54;1736733;82;21118;-74
2022/07/19 12:23:16;;;;;;;;;;;;;;;21.69;67.65;99887.00;1743986;82;20113;-77
2022/07/19 12:25:42;;;;;;;;;;;;;;;21.53;69.24;99881.63;1754801;81;20451;-75
2022/07/19 12:28:09;;;;;;;;;;;;;;;21.42;69.31;99884.88;1754951;82;20121;-71
2022/07/19 12:30:36;;;;;;;;;;;;;;;21.32;69.86;99875.22;1754846;82;20448;-70
2022/07/19 12:33:10;;;;;;;;;;;;;;;21.21;69.94;99878.46;1754789;82;21736;-71
2022/07/19 12:35:45;;;;;;;;;;;;;;;21.13;70.62;99875.33;1754966;82;20150;-77
2022/07/19 12:38:13;;;;;;;;;;;;;;;21.08;72.42;99871.47;1754871;82;20477;-75
2022/07/19 12:40:41;;;;;;;;;;;;;;;20.96;72.50;99870.31;1754626;81;20110;-70
2022/07/19 12:43:11;;;;;;;;;;;;;;;20.82;73.81;99873.70;1754352;81;20109;-68
2022/07/19 12:45:43;;;;;;;;;;;;;;;20.72;74.28;99873.78;1703796;83;21185;-70
2022/07/19 12:48:11;;;;;;;;;;;;;;;20.64;76.16;99870.67;1739950;82;20136;-69
2022/07/19 12:50:41;;;;;;;;;;;;;;;20.60;76.25;99874.59;1754903;82;20082;-70